M I D A S
Marine Information and Data Acquisition System
Tripno 1978 of the Zeeleeuw from 2010-10-21 07:17:02 to 2010-10-21 15:28:27
Back to CruiseResearch ActivitiesStationsMapUnderway DataData graphs

EquipmentUnitsComment
TimeDGPSUTC
LatitudeDGPSDM.mWGS84
LongitudeDGPSDM.mWGS84
HeadingGyrodeg 
SOGDGPSknotsSpeed over ground
COGDGPSdegCourse over ground
DepthEcho soundermeters200 kHz
Missing or incorrect values are displayed as -999
Navigation data collected by the RV Zeeleeuw from 2010-10-21 06:05:45 to 2010-10-21 15:34:58
                                                                                    Next 1000 lines
Time Latitude Longitude Heading SOG COG Depth
2010-10-21 06:05:53 51°13.663 2°55.963 124 0.1 176 -999
2010-10-21 06:05:59 51°13.664 2°55.962 124.1 -999 352 -999
2010-10-21 06:06:06 51°13.664 2°55.962 124.2 -999 21 -999
2010-10-21 06:06:10 51°13.664 2°55.962 124.2 -999 60 -999
2010-10-21 06:06:14 51°13.664 2°55.962 124.2 -999 41 -999
2010-10-21 06:06:20 51°13.664 2°55.962 124.2 0.1 32 -999
2010-10-21 06:06:26 51°13.663 2°55.962 124.2 -999 125 -999
2010-10-21 06:06:30 51°13.663 2°55.962 124.2 -999 348 -999
2010-10-21 06:06:34 51°13.663 2°55.962 124.2 0.1 226 -999
2010-10-21 06:06:40 51°13.663 2°55.962 124.2 0.1 225 -999
2010-10-21 06:06:44 51°13.663 2°55.962 124 -999 218 -999
2010-10-21 06:06:50 51°13.663 2°55.962 123.8 0.1 60 -999
2010-10-21 06:06:56 51°13.663 2°55.961 123.6 -999 64 -999
2010-10-21 06:07:00 51°13.663 2°55.961 123.5 0.1 240 -999
2010-10-21 06:07:04 51°13.664 2°55.961 123.4 -999 299 -999
2010-10-21 06:07:10 51°13.663 2°55.961 123.4 0.1 101 -999
2010-10-21 06:07:16 51°13.663 2°55.961 123.5 0.1 151 -999
2010-10-21 06:07:20 51°13.663 2°55.961 123.7 -999 224 -999
2010-10-21 06:07:24 51°13.663 2°55.961 123.8 -999 183 -999
2010-10-21 06:07:30 51°13.663 2°55.961 124 -999 131 -999
2010-10-21 06:07:34 51°13.663 2°55.961 124.2 -999 70 -999
2010-10-21 06:07:40 51°13.663 2°55.961 124.2 -999 338 -999
2010-10-21 06:07:44 51°13.663 2°55.96 124.3 0.1 300 -999
2010-10-21 06:07:50 51°13.663 2°55.961 124.4 -999 5 -999
2010-10-21 06:07:54 51°13.663 2°55.96 124.5 -999 15 -999
2010-10-21 06:08:00 51°13.663 2°55.96 124.6 0.2 355 -999
2010-10-21 06:08:06 51°13.663 2°55.96 124.6 -999 121 -999
2010-10-21 06:08:10 51°13.663 2°55.96 124.6 0.1 229 -999
2010-10-21 06:08:14 51°13.663 2°55.96 124.4 0.1 246 -999
2010-10-21 06:08:20 51°13.663 2°55.96 124.3 -999 326 -999
2010-10-21 06:08:26 51°13.663 2°55.96 124.2 -999 329 -999
2010-10-21 06:08:30 51°13.663 2°55.96 124 0.1 34 -999
2010-10-21 06:08:34 51°13.663 2°55.96 124 -999 101 -999
2010-10-21 06:08:40 51°13.663 2°55.96 124 -999 242 -999
2010-10-21 06:08:46 51°13.663 2°55.96 124 -999 331 -999
2010-10-21 06:08:50 51°13.663 2°55.96 123.9 0.1 156 -999
2010-10-21 06:08:54 51°13.663 2°55.96 123.9 -999 231 -999
2010-10-21 06:09:00 51°13.663 2°55.96 124 0.1 260 -999
2010-10-21 06:09:04 51°13.663 2°55.96 124 -999 26 -999
2010-10-21 06:09:10 51°13.663 2°55.96 124 -999 350 -999
2010-10-21 06:09:16 51°13.663 2°55.96 124 -999 336 -999
2010-10-21 06:09:20 51°13.663 2°55.96 124 -999 274 -999
2010-10-21 06:09:24 51°13.663 2°55.96 124 -999 273 -999
2010-10-21 06:09:29 51°13.663 2°55.96 124 -999 345 -999
2010-10-21 06:09:35 51°13.663 2°55.96 124 -999 2 -999
2010-10-21 06:09:39 51°13.663 2°55.96 124 -999 59 -999
2010-10-21 06:09:44 51°13.663 2°55.96 124.1 -999 202 -999
2010-10-21 06:09:49 51°13.663 2°55.96 124.1 -999 73 -999
2010-10-21 06:09:54 51°13.663 2°55.96 124.1 -999 280 -999
2010-10-21 06:09:59 51°13.663 2°55.959 124.2 -999 335 -999
2010-10-21 06:10:05 51°13.663 2°55.959 124.2 0.1 248 -999
2010-10-21 06:10:10 51°13.663 2°55.959 124.2 0.1 224 -999
2010-10-21 06:10:15 51°13.662 2°55.959 124.2 0.1 231 -999
2010-10-21 06:10:21 51°13.663 2°55.959 124.2 -999 217 -999
2010-10-21 06:10:26 51°13.663 2°55.959 124.2 -999 268 -999
2010-10-21 06:10:29 51°13.663 2°55.959 124.1 -999 295 -999
2010-10-21 06:10:34 51°13.663 2°55.959 124 -999 228 -999
2010-10-21 06:10:40 51°13.663 2°55.959 123.9 -999 224 -999
2010-10-21 06:10:45 51°13.663 2°55.96 123.9 -999 255 -999
2010-10-21 06:10:49 51°13.663 2°55.96 123.8 -999 123 -999
2010-10-21 06:10:54 51°13.663 2°55.959 123.8 -999 244 -999
2010-10-21 06:11:00 51°13.663 2°55.959 123.8 0.1 243 -999
2010-10-21 06:11:05 51°13.663 2°55.96 123.8 -999 321 -999
2010-10-21 06:11:09 51°13.663 2°55.96 123.9 -999 219 -999
2010-10-21 06:11:14 51°13.663 2°55.96 123.9 -999 213 -999
2010-10-21 06:11:20 51°13.663 2°55.96 123.9 -999 104 -999
2010-10-21 06:11:24 51°13.663 2°55.96 124 -999 270 -999
2010-10-21 06:11:30 51°13.663 2°55.96 124 -999 285 -999
2010-10-21 06:11:34 51°13.663 2°55.96 123.9 -999 330 -999
2010-10-21 06:11:39 51°13.662 2°55.96 123.8 -999 304 -999
2010-10-21 06:11:44 51°13.662 2°55.96 123.7 -999 245 -999
2010-10-21 06:11:50 51°13.662 2°55.96 123.5 -999 257 -999
2010-10-21 06:11:56 51°13.662 2°55.96 123.5 -999 269 -999
2010-10-21 06:12:00 51°13.663 2°55.96 123.5 -999 152 -999
2010-10-21 06:12:04 51°13.663 2°55.96 123.4 -999 129 -999
2010-10-21 06:12:10 51°13.663 2°55.96 123.4 -999 167 -999
2010-10-21 06:12:16 51°13.663 2°55.96 123.5 -999 122 -999
2010-10-21 06:12:20 51°13.663 2°55.96 123.5 -999 134 -999
2010-10-21 06:12:25 51°13.663 2°55.96 123.5 -999 133 -999
2010-10-21 06:12:30 51°13.663 2°55.96 123.7 -999 298 -999
2010-10-21 06:12:35 51°13.663 2°55.96 123.7 -999 359 -999
2010-10-21 06:12:40 51°13.663 2°55.96 123.7 -999 293 -999
2010-10-21 06:12:45 51°13.663 2°55.96 123.6 -999 347 -999
2010-10-21 06:12:49 51°13.663 2°55.96 123.6 -999 258 -999
2010-10-21 06:12:55 51°13.663 2°55.96 123.5 -999 25 -999
2010-10-21 06:13:00 51°13.663 2°55.96 123.5 -999 241 -999
2010-10-21 06:13:06 51°13.663 2°55.96 123.5 0.1 14 -999
2010-10-21 06:13:10 51°13.663 2°55.96 123.5 -999 259 -999
2010-10-21 06:13:15 51°13.662 2°55.96 123.5 -999 347 -999
2010-10-21 06:13:21 51°13.662 2°55.96 123.5 -999 149 -999
2010-10-21 06:13:26 51°13.662 2°55.96 123.7 -999 76 -999
2010-10-21 06:13:30 51°13.662 2°55.96 123.8 -999 232 -999
2010-10-21 06:13:34 51°13.662 2°55.96 123.8 -999 233 -999
2010-10-21 06:13:40 51°13.662 2°55.96 123.9 -999 63 -999
2010-10-21 06:13:46 51°13.662 2°55.96 124.2 -999 95 -999
2010-10-21 06:13:49 51°13.662 2°55.96 124.2 0.1 107 -999
2010-10-21 06:13:54 51°13.662 2°55.96 124.2 -999 244 -999
2010-10-21 06:14:00 51°13.662 2°55.96 124.2 -999 336 -999
2010-10-21 06:14:05 51°13.662 2°55.96 124.2 -999 216 -999
2010-10-21 06:14:10 51°13.662 2°55.96 124.2 0.1 62 -999
2010-10-21 06:14:14 51°13.662 2°55.96 124.2 -999 138 -999
2010-10-21 06:14:20 51°13.662 2°55.96 124.2 0.1 51 -999
2010-10-21 06:14:24 51°13.662 2°55.961 124.2 -999 183 -999
2010-10-21 06:14:30 51°13.662 2°55.961 124.2 0.1 350 -999
2010-10-21 06:14:35 51°13.662 2°55.96 124.1 -999 225 -999
2010-10-21 06:14:39 51°13.662 2°55.96 124 -999 248 -999
2010-10-21 06:14:44 51°13.662 2°55.96 124 -999 276 -999
2010-10-21 06:14:50 51°13.662 2°55.961 123.9 -999 114 -999
2010-10-21 06:14:55 51°13.662 2°55.961 123.9 0.1 141 -999
2010-10-21 06:14:59 51°13.662 2°55.96 123.9 -999 145 -999
2010-10-21 06:15:04 51°13.662 2°55.96 123.9 0.1 207 -999
2010-10-21 06:15:09 51°13.662 2°55.96 123.9 0.1 203 -999
2010-10-21 06:15:15 51°13.662 2°55.96 123.9 -999 56 -999
2010-10-21 06:15:19 51°13.662 2°55.961 123.9 0.1 121 -999
2010-10-21 06:15:24 51°13.662 2°55.96 123.9 0.1 68 -999
2010-10-21 06:15:29 51°13.662 2°55.961 123.9 0.1 128 -999
2010-10-21 06:15:36 51°13.662 2°55.96 124 -999 96 -999
2010-10-21 06:15:39 51°13.662 2°55.96 124 -999 156 -999
2010-10-21 06:15:44 51°13.662 2°55.96 124 0.1 16 -999
2010-10-21 06:15:49 51°13.662 2°55.96 124 -999 205 -999
2010-10-21 06:15:54 51°13.662 2°55.96 124 -999 338 -999
2010-10-21 06:16:00 51°13.662 2°55.96 124 -999 196 -999
2010-10-21 06:16:05 51°13.662 2°55.96 124 -999 234 -999
2010-10-21 06:16:10 51°13.662 2°55.96 123.9 -999 269 -999
2010-10-21 06:16:14 51°13.662 2°55.96 123.7 0.1 331 -999
2010-10-21 06:16:20 51°13.662 2°55.96 123.5 -999 19 -999
2010-10-21 06:16:25 51°13.662 2°55.96 123.4 -999 121 -999
2010-10-21 06:16:29 51°13.662 2°55.96 123.2 0.1 18 -999
2010-10-21 06:16:34 51°13.662 2°55.96 123.2 0.1 346 -999
2010-10-21 06:16:40 51°13.662 2°55.96 123.2 0.1 10 -999
2010-10-21 06:16:45 51°13.662 2°55.96 123.2 -999 7 -999
2010-10-21 06:16:50 51°13.662 2°55.96 123.2 -999 9 -999
2010-10-21 06:16:54 51°13.662 2°55.96 123.2 0.1 255 -999
2010-10-21 06:16:59 51°13.662 2°55.96 123.2 0.1 298 -999
2010-10-21 06:17:05 51°13.662 2°55.96 123.2 -999 196 -999
2010-10-21 06:17:10 51°13.662 2°55.96 123.2 0.1 17 -999
2010-10-21 06:17:14 51°13.662 2°55.96 123.2 -999 120 -999
2010-10-21 06:17:19 51°13.662 2°55.96 123.2 -999 187 -999
2010-10-21 06:17:24 51°13.662 2°55.96 123.2 -999 198 -999
2010-10-21 06:17:29 51°13.662 2°55.96 123.2 0.1 8 -999
2010-10-21 06:17:35 51°13.662 2°55.96 123.2 -999 329 -999
2010-10-21 06:17:39 51°13.662 2°55.96 123.4 -999 135 -999
2010-10-21 06:17:44 51°13.662 2°55.96 123.5 0.1 166 -999
2010-10-21 06:17:49 51°13.662 2°55.96 123.7 0.1 138 -999
2010-10-21 06:17:55 51°13.662 2°55.96 123.9 -999 128 -999
2010-10-21 06:17:59 51°13.662 2°55.96 124.2 -999 165 -999
2010-10-21 06:18:04 51°13.662 2°55.96 124.3 0.1 18 -999
2010-10-21 06:18:09 51°13.662 2°55.96 124.4 -999 225 -999
2010-10-21 06:18:15 51°13.662 2°55.96 124.5 0.1 155 -999
2010-10-21 06:18:19 51°13.662 2°55.96 124.6 -999 152 -999
2010-10-21 06:18:24 51°13.662 2°55.96 124.6 -999 150 -999
2010-10-21 06:18:29 51°13.662 2°55.96 124.6 0.1 126 -999
2010-10-21 06:18:34 51°13.662 2°55.96 124.2 -999 4 -999
2010-10-21 06:18:39 51°13.662 2°55.96 124.1 -999 238 -999
2010-10-21 06:18:44 51°13.662 2°55.96 123.8 0.1 152 -999
2010-10-21 06:18:49 51°13.662 2°55.96 123.5 0.1 154 -999
2010-10-21 06:18:54 51°13.662 2°55.96 123.5 -999 151 -999
2010-10-21 06:18:59 51°13.662 2°55.96 123.5 -999 148 -999
2010-10-21 06:19:05 51°13.662 2°55.96 123.5 -999 163 -999
2010-10-21 06:19:09 51°13.662 2°55.96 123.5 0.1 207 -999
2010-10-21 06:19:14 51°13.662 2°55.96 123.7 -999 265 -999
2010-10-21 06:19:20 51°13.662 2°55.96 123.9 0.1 196 -999
2010-10-21 06:19:25 51°13.662 2°55.96 123.9 0.1 194 -999
2010-10-21 06:19:30 51°13.662 2°55.96 124 -999 189 -999
2010-10-21 06:19:34 51°13.662 2°55.96 124 0.1 63 -999
2010-10-21 06:19:39 51°13.662 2°55.96 124 -999 133 -999
2010-10-21 06:19:44 51°13.662 2°55.96 124.1 -999 295 -999
2010-10-21 06:19:50 51°13.662 2°55.96 123.9 -999 12 -999
2010-10-21 06:19:54 51°13.662 2°55.96 123.8 -999 13 -999
2010-10-21 06:19:59 51°13.662 2°55.96 123.8 -999 101 -999
2010-10-21 06:20:04 51°13.662 2°55.96 123.8 -999 267 -999
2010-10-21 06:20:10 51°13.662 2°55.96 123.9 -999 350 -999
2010-10-21 06:20:15 51°13.662 2°55.96 123.9 -999 167 -999
2010-10-21 06:20:19 51°13.662 2°55.96 124.1 -999 173 -999
2010-10-21 06:20:24 51°13.662 2°55.96 124.2 0.1 161 -999
2010-10-21 06:20:29 51°13.662 2°55.96 124.2 0.1 132 -999
2010-10-21 06:20:35 51°13.662 2°55.96 124.2 0.1 169 -999
2010-10-21 06:20:37 51°13.662 2°55.96 124.2 -999 281 -999
2010-10-21 06:20:44 51°13.662 2°55.96 124.1 0.1 350 -999
2010-10-21 06:20:50 51°13.662 2°55.96 123.9 -999 339 -999
2010-10-21 06:20:55 51°13.662 2°55.96 123.8 -999 185 -999
2010-10-21 06:20:59 51°13.662 2°55.96 123.6 -999 159 -999
2010-10-21 06:21:04 51°13.662 2°55.96 123.5 -999 94 -999
2010-10-21 06:21:09 51°13.662 2°55.96 123.5 0.1 310 -999
2010-10-21 06:21:14 51°13.662 2°55.96 123.5 -999 317 -999
2010-10-21 06:21:19 51°13.662 2°55.96 123.5 -999 315 -999
2010-10-21 06:21:24 51°13.662 2°55.96 123.7 -999 143 -999
2010-10-21 06:21:29 51°13.662 2°55.96 123.7 -999 160 -999
2010-10-21 06:21:34 51°13.662 2°55.96 123.9 -999 336 -999
2010-10-21 06:21:39 51°13.662 2°55.96 124.1 -999 70 -999
2010-10-21 06:21:44 51°13.662 2°55.96 124.2 -999 86 -999
2010-10-21 06:21:49 51°13.662 2°55.96 124.2 -999 200 -999
2010-10-21 06:21:55 51°13.662 2°55.96 124.3 0.1 23 -999
2010-10-21 06:21:59 51°13.662 2°55.96 124.3 -999 190 -999
2010-10-21 06:22:04 51°13.662 2°55.961 124.4 0.1 86 -999
2010-10-21 06:22:09 51°13.662 2°55.96 124.4 0.1 187 -999
2010-10-21 06:22:14 51°13.662 2°55.96 124.3 -999 315 -999
2010-10-21 06:22:19 51°13.662 2°55.96 124.2 -999 279 -999
2010-10-21 06:22:24 51°13.662 2°55.96 124 -999 331 -999
2010-10-21 06:22:29 51°13.662 2°55.96 123.8 -999 251 -999
2010-10-21 06:22:34 51°13.662 2°55.96 123.7 -999 63 -999
2010-10-21 06:22:40 51°13.662 2°55.96 123.7 -999 159 -999
2010-10-21 06:22:45 51°13.662 2°55.96 123.7 0.1 335 -999
2010-10-21 06:22:50 51°13.662 2°55.96 123.6 -999 351 -999
2010-10-21 06:22:55 51°13.662 2°55.96 123.8 -999 28 -999
2010-10-21 06:23:00 51°13.662 2°55.96 123.8 -999 115 -999
2010-10-21 06:23:04 51°13.662 2°55.96 124 0.1 150 7.5
2010-10-21 06:23:09 51°13.662 2°55.96 124.1 -999 135 7.6
2010-10-21 06:23:14 51°13.662 2°55.96 124.1 0.1 166 7.5
2010-10-21 06:23:19 51°13.662 2°55.96 124.2 -999 88 7.6
2010-10-21 06:23:24 51°13.662 2°55.96 124.2 -999 112 7.5
2010-10-21 06:23:30 51°13.662 2°55.96 124.2 -999 15 5.7
2010-10-21 06:23:35 51°13.662 2°55.96 124.3 0.1 182 7.5
2010-10-21 06:23:39 51°13.662 2°55.96 124.3 0.1 187 7.5
2010-10-21 06:23:44 51°13.662 2°55.96 124.4 -999 237 7.5
2010-10-21 06:23:49 51°13.662 2°55.96 124.4 -999 4 7.5
2010-10-21 06:23:53 51°13.662 2°55.96 124.4 -999 212 7.5
2010-10-21 06:23:58 51°13.662 2°55.96 124.4 -999 34 7.5
2010-10-21 06:24:03 51°13.662 2°55.96 124.4 -999 204 5.7
2010-10-21 06:24:09 51°13.662 2°55.96 124.4 -999 120 -999
2010-10-21 06:24:13 51°13.662 2°55.96 124.3 -999 246 7.5
2010-10-21 06:24:18 51°13.662 2°55.96 124.3 -999 238 7.5
2010-10-21 06:24:24 51°13.662 2°55.96 124.3 -999 65 7.5
2010-10-21 06:24:28 51°13.662 2°55.96 124.3 -999 4 7.5
2010-10-21 06:24:34 51°13.662 2°55.96 124.3 -999 49 5.7
2010-10-21 06:24:38 51°13.662 2°55.96 124.3 -999 355 5.7
2010-10-21 06:24:44 51°13.662 2°55.96 124.3 -999 33 -999
2010-10-21 06:24:48 51°13.662 2°55.96 124.3 -999 31 7.6
2010-10-21 06:24:53 51°13.662 2°55.96 124.3 -999 327 7.5
2010-10-21 06:24:58 51°13.662 2°55.96 124.3 -999 92 7.5
2010-10-21 06:25:04 51°13.662 2°55.96 124.3 -999 17 7.5
2010-10-21 06:25:08 51°13.662 2°55.96 124.2 -999 247 7.5
2010-10-21 06:25:14 51°13.662 2°55.96 124.2 -999 18 7.5
2010-10-21 06:25:17 51°13.662 2°55.96 124.2 -999 153 7.5
2010-10-21 06:25:23 51°13.662 2°55.96 124.1 -999 12 7.5
2010-10-21 06:25:28 51°13.662 2°55.96 124 -999 218 7.6
2010-10-21 06:25:32 51°13.662 2°55.959 124 -999 42 7.5
2010-10-21 06:25:37 51°13.662 2°55.959 124 -999 180 7.6
2010-10-21 06:25:42 51°13.662 2°55.96 123.8 -999 348 7.5
2010-10-21 06:25:48 51°13.662 2°55.96 123.8 -999 189 7.5
2010-10-21 06:25:52 51°13.662 2°55.959 123.8 -999 274 7.5
2010-10-21 06:25:57 51°13.662 2°55.959 123.8 -999 228 5.7
2010-10-21 06:26:02 51°13.662 2°55.96 123.8 -999 350 -999
2010-10-21 06:26:08 51°13.662 2°55.96 123.8 -999 98 7.6
2010-10-21 06:26:14 51°13.662 2°55.96 123.8 -999 21 7.7
2010-10-21 06:26:17 51°13.662 2°55.96 123.7 -999 200 7.6
2010-10-21 06:26:23 51°13.662 2°55.96 123.7 -999 45 7.6
2010-10-21 06:26:28 51°13.662 2°55.96 123.7 -999 99 7.5
2010-10-21 06:26:33 51°13.662 2°55.96 123.7 -999 101 -999
2010-10-21 06:26:37 51°13.662 2°55.96 123.8 -999 193 7.5
2010-10-21 06:26:42 51°13.662 2°55.96 123.9 -999 27 5.7
2010-10-21 06:26:48 51°13.662 2°55.96 123.9 -999 179 7.6
2010-10-21 06:26:52 51°13.662 2°55.96 124 -999 19 7.6
2010-10-21 06:26:58 51°13.662 2°55.96 124.1 -999 83 7.6
2010-10-21 06:27:02 51°13.662 2°55.96 124.1 -999 50 7.6
2010-10-21 06:27:07 51°13.662 2°55.96 124.1 -999 324 7.6
2010-10-21 06:27:12 51°13.662 2°55.96 124.1 -999 18 -999
2010-10-21 06:27:17 51°13.662 2°55.96 124.1 -999 234 -999
2010-10-21 06:27:22 51°13.662 2°55.96 124 -999 56 7.5
2010-10-21 06:27:28 51°13.662 2°55.96 123.9 -999 221 7.6
2010-10-21 06:27:33 51°13.662 2°55.96 123.8 -999 359 7.5
2010-10-21 06:27:37 51°13.662 2°55.96 123.8 -999 224 -999
2010-10-21 06:27:42 51°13.662 2°55.96 123.7 -999 31 5.7
2010-10-21 06:27:47 51°13.662 2°55.96 123.5 -999 147 7.8
2010-10-21 06:27:53 51°13.662 2°55.96 123.5 -999 26 5.7
2010-10-21 06:27:57 51°13.662 2°55.96 123.4 -999 272 7.6
2010-10-21 06:28:02 51°13.662 2°55.96 123.4 -999 106 7.6
2010-10-21 06:28:08 51°13.662 2°55.96 123.4 -999 343 7.5
2010-10-21 06:28:12 51°13.662 2°55.96 123.4 -999 39 7.6
2010-10-21 06:28:18 51°13.662 2°55.96 123.4 -999 36 7.6
2010-10-21 06:28:22 51°13.662 2°55.96 123.5 -999 347 7.6
2010-10-21 06:28:27 51°13.662 2°55.96 123.5 -999 274 7.6
2010-10-21 06:28:33 51°13.662 2°55.96 123.5 -999 195 7.6
2010-10-21 06:28:37 51°13.662 2°55.96 123.5 -999 26 5.7
2010-10-21 06:28:42 51°13.662 2°55.96 123.5 -999 111 5.7
2010-10-21 06:28:47 51°13.662 2°55.96 123.4 -999 14 7.5
2010-10-21 06:28:52 51°13.662 2°55.96 123.4 -999 167 7.6
2010-10-21 06:28:57 51°13.662 2°55.96 123.5 -999 356 -999
2010-10-21 06:29:02 51°13.662 2°55.96 123.5 -999 330 7.6
2010-10-21 06:29:07 51°13.662 2°55.96 123.5 -999 70 7.6
2010-10-21 06:29:12 51°13.662 2°55.96 123.5 -999 316 7.6
2010-10-21 06:29:17 51°13.662 2°55.96 123.5 -999 272 7.6
2010-10-21 06:29:22 51°13.662 2°55.96 123.5 -999 86 5.7
2010-10-21 06:29:26 51°13.662 2°55.959 123.5 -999 200 7.6
2010-10-21 06:29:31 51°13.662 2°55.959 123.5 -999 285 7.6
2010-10-21 06:29:36 51°13.662 2°55.959 123.5 -999 239 7.6
2010-10-21 06:29:42 51°13.662 2°55.96 123.5 -999 17 7.6
2010-10-21 06:29:46 51°13.662 2°55.96 123.5 -999 185 7.6
2010-10-21 06:29:51 51°13.662 2°55.96 123.5 -999 15 7.6
2010-10-21 06:29:56 51°13.662 2°55.96 123.5 -999 56 7.6
2010-10-21 06:30:02 51°13.662 2°55.96 123.5 -999 21 7.6
2010-10-21 06:30:06 51°13.662 2°55.96 123.5 -999 204 7.6
2010-10-21 06:30:11 51°13.662 2°55.96 123.5 -999 62 7.6
2010-10-21 06:30:16 51°13.662 2°55.96 123.5 -999 189 7.6
2010-10-21 06:30:22 51°13.662 2°55.96 123.5 -999 242 5.9
2010-10-21 06:30:26 51°13.662 2°55.96 123.5 -999 146 -999
2010-10-21 06:30:32 51°13.662 2°55.96 123.5 -999 12 7.6
2010-10-21 06:30:37 51°13.662 2°55.96 123.7 -999 213 7.6
2010-10-21 06:30:42 51°13.662 2°55.96 123.8 -999 19 7.6
2010-10-21 06:30:46 51°13.662 2°55.96 123.8 -999 259 7.6
2010-10-21 06:30:51 51°13.662 2°55.96 123.9 -999 19 -999
2010-10-21 06:30:56 51°13.662 2°55.96 123.9 -999 97 7.6
2010-10-21 06:31:02 51°13.662 2°55.96 123.9 -999 16 7.6
2010-10-21 06:31:06 51°13.662 2°55.96 124 -999 237 5.7
2010-10-21 06:31:12 51°13.662 2°55.96 124 -999 15 7.6
2010-10-21 06:31:17 51°13.662 2°55.96 124.1 -999 234 -999
2010-10-21 06:31:22 51°13.663 2°55.96 124.1 0.1 357 7.6
2010-10-21 06:31:26 51°13.662 2°55.96 124 -999 278 7.5
2010-10-21 06:31:32 51°13.662 2°55.96 123.9 -999 20 -999
2010-10-21 06:31:37 51°13.662 2°55.96 123.7 -999 216 7.6
2010-10-21 06:31:42 51°13.662 2°55.96 123.7 -999 338 7.6
2010-10-21 06:31:46 51°13.662 2°55.96 123.6 -999 179 5.7
2010-10-21 06:31:52 51°13.662 2°55.96 123.5 -999 200 -999
2010-10-21 06:31:57 51°13.662 2°55.96 123.5 -999 46 7.6
2010-10-21 06:32:02 51°13.662 2°55.96 123.5 -999 12 7.6
2010-10-21 06:32:06 51°13.662 2°55.96 123.5 -999 272 7.6
2010-10-21 06:32:12 51°13.662 2°55.96 123.6 -999 8 7.6
2010-10-21 06:32:17 51°13.662 2°55.96 123.6 -999 324 7.6
2010-10-21 06:32:22 51°13.662 2°55.96 123.6 -999 26 7.6
2010-10-21 06:32:26 51°13.662 2°55.96 123.5 -999 215 7.6
2010-10-21 06:32:32 51°13.662 2°55.96 123.5 -999 2 7.6
2010-10-21 06:32:37 51°13.662 2°55.96 123.5 -999 177 7.6
2010-10-21 06:32:42 51°13.662 2°55.96 123.5 -999 196 7.6
2010-10-21 06:32:46 51°13.662 2°55.96 123.5 -999 192 7.6
2010-10-21 06:32:51 51°13.662 2°55.96 123.5 -999 348 7.6
2010-10-21 06:32:56 51°13.662 2°55.96 123.5 -999 304 7.6
2010-10-21 06:33:02 51°13.662 2°55.96 123.6 -999 356 7.6
2010-10-21 06:33:06 51°13.662 2°55.96 123.6 -999 279 7.6
2010-10-21 06:33:12 51°13.662 2°55.96 123.5 -999 193 7.6
2010-10-21 06:33:16 51°13.662 2°55.96 123.5 -999 97 7.6
2010-10-21 06:33:22 51°13.662 2°55.96 123.5 -999 206 7.6
2010-10-21 06:33:26 51°13.662 2°55.96 123.5 -999 49 5.7
2010-10-21 06:33:31 51°13.663 2°55.96 123.5 -999 155 7.6
2010-10-21 06:33:37 51°13.663 2°55.96 123.5 -999 62 7.6
2010-10-21 06:33:42 51°13.663 2°55.96 123.7 -999 15 7.6
2010-10-21 06:33:46 51°13.663 2°55.96 123.7 -999 283 7.7
2010-10-21 06:33:51 51°13.663 2°55.96 123.7 -999 11 7.6
2010-10-21 06:33:57 51°13.663 2°55.96 123.7 -999 7 5.7
2010-10-21 06:34:02 51°13.663 2°55.96 123.5 -999 333 7.6
2010-10-21 06:34:06 51°13.663 2°55.96 123.3 -999 207 7.6
2010-10-21 06:34:12 51°13.662 2°55.961 123.1 -999 9 7.5
2010-10-21 06:34:16 51°13.662 2°55.961 123 -999 187 7.6
2010-10-21 06:34:22 51°13.662 2°55.961 123 -999 24 7.6
2010-10-21 06:34:26 51°13.662 2°55.961 123 -999 208 7.6
2010-10-21 06:34:32 51°13.662 2°55.961 123.1 -999 135 7.6
2010-10-21 06:34:37 51°13.662 2°55.962 123.2 -999 127 7.6
2010-10-21 06:34:42 51°13.662 2°55.962 123.4 -999 99 5.7
2010-10-21 06:34:46 51°13.662 2°55.962 123.5 -999 197 7.6
2010-10-21 06:34:51 51°13.662 2°55.962 123.5 -999 41 7.6
2010-10-21 06:34:56 51°13.662 2°55.962 123.5 -999 320 7.6
2010-10-21 06:35:02 51°13.662 2°55.963 123.4 -999 277 7.6
2010-10-21 06:35:06 51°13.662 2°55.963 123.2 -999 61 7.6
2010-10-21 06:35:11 51°13.662 2°55.962 123.2 -999 33 7.6
2010-10-21 06:35:16 51°13.662 2°55.962 123.2 -999 182 7.6
2010-10-21 06:35:22 51°13.662 2°55.962 123.2 -999 21 7.5
2010-10-21 06:35:26 51°13.662 2°55.962 123.2 -999 39 7.5
2010-10-21 06:35:31 51°13.662 2°55.962 123.2 -999 348 7.6
2010-10-21 06:35:36 51°13.662 2°55.962 123.2 -999 -999 7.6
2010-10-21 06:35:42 51°13.662 2°55.962 123.2 -999 154 7.6
2010-10-21 06:35:46 51°13.662 2°55.962 123.2 -999 335 5.7
2010-10-21 06:35:51 51°13.662 2°55.962 123.2 -999 347 5.7
2010-10-21 06:35:56 51°13.663 2°55.961 123.2 -999 356 8
2010-10-21 06:36:02 51°13.663 2°55.961 123.2 -999 164 7.6
2010-10-21 06:36:06 51°13.663 2°55.961 123.2 -999 17 5.7
2010-10-21 06:36:12 51°13.663 2°55.961 123.2 -999 248 7.6
2010-10-21 06:36:16 51°13.663 2°55.961 123.3 -999 7 7.6
2010-10-21 06:36:22 51°13.663 2°55.961 123.3 -999 41 7.6
2010-10-21 06:36:26 51°13.663 2°55.961 123.3 -999 334 7.6
2010-10-21 06:36:32 51°13.663 2°55.96 123.2 -999 197 7.6
2010-10-21 06:36:36 51°13.663 2°55.96 123.2 -999 100 7.6
2010-10-21 06:36:42 51°13.663 2°55.96 123.1 -999 199 7.6
2010-10-21 06:36:46 51°13.664 2°55.96 123.1 -999 45 7.6
2010-10-21 06:36:51 51°13.663 2°55.96 123.1 -999 212 7.6
2010-10-21 06:36:56 51°13.663 2°55.961 123.1 -999 85 5.8
2010-10-21 06:37:02 51°13.663 2°55.961 123.2 -999 206 7.6
2010-10-21 06:37:06 51°13.663 2°55.961 123.2 -999 318 7.6
2010-10-21 06:37:12 51°13.663 2°55.961 123.4 -999 131 7.6
2010-10-21 06:37:17 51°13.663 2°55.961 123.4 -999 342 7.6
2010-10-21 06:37:22 51°13.663 2°55.961 123.3 -999 210 7.6
2010-10-21 06:37:26 51°13.663 2°55.961 123.2 0.1 86 7.6
2010-10-21 06:37:32 51°13.663 2°55.961 123.1 0.1 161 7.6
2010-10-21 06:37:37 51°13.663 2°55.961 123.5 0.1 117 7.6
2010-10-21 06:37:42 51°13.662 2°55.961 124 -999 148 -999
2010-10-21 06:37:46 51°13.662 2°55.961 124.2 -999 128 7.7
2010-10-21 06:37:51 51°13.662 2°55.961 124.3 -999 334 7.6
2010-10-21 06:37:56 51°13.662 2°55.961 124.3 -999 313 7.6
2010-10-21 06:38:02 51°13.662 2°55.961 124.3 0.1 356 7.7
2010-10-21 06:38:06 51°13.662 2°55.961 124.1 0.1 347 7.6
2010-10-21 06:38:11 51°13.662 2°55.961 123.8 -999 291 7.6
2010-10-21 06:38:16 51°13.663 2°55.961 123.5 -999 24 7.6
2010-10-21 06:38:22 51°13.663 2°55.961 123.4 -999 198 7.6
2010-10-21 06:38:26 51°13.663 2°55.961 123.4 -999 45 7.6
2010-10-21 06:38:32 51°13.663 2°55.96 123.3 -999 160 7.6
2010-10-21 06:38:36 51°13.663 2°55.96 123.3 -999 17 7.6
2010-10-21 06:38:42 51°13.663 2°55.96 123.3 -999 34 5.7
2010-10-21 06:38:46 51°13.663 2°55.961 123.3 -999 21 5.8
2010-10-21 06:38:52 51°13.662 2°55.961 123.3 -999 184 5.8
2010-10-21 06:38:57 51°13.662 2°55.961 123.5 -999 161 7.6
2010-10-21 06:39:02 51°13.662 2°55.961 123.5 -999 202 7.6
2010-10-21 06:39:06 51°13.662 2°55.962 123.6 -999 161 7.6
2010-10-21 06:39:11 51°13.662 2°55.962 123.7 -999 74 7.7
2010-10-21 06:39:17 51°13.661 2°55.962 123.7 -999 355 7.6
2010-10-21 06:39:22 51°13.661 2°55.962 123.7 -999 359 7.6
2010-10-21 06:39:26 51°13.662 2°55.962 123.7 -999 56 5.8
2010-10-21 06:39:31 51°13.662 2°55.962 123.5 -999 8 7.7
2010-10-21 06:39:36 51°13.662 2°55.962 123.5 -999 231 7.6
2010-10-21 06:39:42 51°13.661 2°55.962 123.5 -999 141 7.6
2010-10-21 06:39:46 51°13.662 2°55.962 123.4 -999 279 7.6
2010-10-21 06:39:51 51°13.662 2°55.962 123.4 -999 159 7.7
2010-10-21 06:39:56 51°13.662 2°55.961 123.5 -999 200 5.8
2010-10-21 06:40:02 51°13.662 2°55.961 123.5 -999 25 7.7
2010-10-21 06:40:06 51°13.663 2°55.961 123.6 -999 166 7.7
2010-10-21 06:40:11 51°13.663 2°55.961 123.7 0.1 29 7.7
2010-10-21 06:40:16 51°13.663 2°55.96 123.7 -999 208 7.6
2010-10-21 06:40:22 51°13.663 2°55.96 123.8 -999 33 7.7
2010-10-21 06:40:26 51°13.663 2°55.96 123.8 -999 309 5.7
2010-10-21 06:40:32 51°13.663 2°55.961 123.8 -999 2 7.6
2010-10-21 06:40:36 51°13.662 2°55.961 123.8 -999 285 7.6
2010-10-21 06:40:42 51°13.662 2°55.961 123.8 -999 359 7.6
2010-10-21 06:40:46 51°13.662 2°55.961 123.7 -999 256 7.6
2010-10-21 06:40:52 51°13.662 2°55.961 123.7 -999 201 7.6
2010-10-21 06:40:56 51°13.662 2°55.961 123.7 -999 216 5.8
2010-10-21 06:41:02 51°13.662 2°55.961 123.7 -999 3 7.6
2010-10-21 06:41:06 51°13.662 2°55.961 123.7 -999 215 7.7
2010-10-21 06:41:12 51°13.662 2°55.961 123.7 -999 173 7.6
2010-10-21 06:41:17 51°13.662 2°55.962 123.7 -999 65 7.6
2010-10-21 06:41:22 51°13.662 2°55.962 123.7 -999 197 5.8
2010-10-21 06:41:26 51°13.662 2°55.962 123.8 -999 40 7.7
2010-10-21 06:41:31 51°13.662 2°55.962 123.8 -999 156 7.6
2010-10-21 06:41:36 51°13.662 2°55.962 123.9 -999 316 7.6
2010-10-21 06:41:42 51°13.662 2°55.961 123.9 -999 49 7.7
2010-10-21 06:41:46 51°13.662 2°55.961 124 -999 234 5.7
2010-10-21 06:41:51 51°13.662 2°55.961 124.1 0.1 46 7.7
2010-10-21 06:41:56 51°13.662 2°55.961 124.1 -999 214 7.6
2010-10-21 06:42:02 51°13.662 2°55.961 124.1 -999 23 7.6
2010-10-21 06:42:06 51°13.662 2°55.961 124.1 -999 192 7.6
2010-10-21 06:42:11 51°13.662 2°55.961 124.1 -999 257 7.7
2010-10-21 06:42:16 51°13.662 2°55.961 124.1 -999 1 7.7
2010-10-21 06:42:22 51°13.662 2°55.961 124 -999 284 7.7
2010-10-21 06:42:26 51°13.662 2°55.961 123.9 -999 352 7.6
2010-10-21 06:42:31 51°13.662 2°55.961 123.8 -999 279 7.6
2010-10-21 06:42:36 51°13.662 2°55.961 123.7 -999 99 7.7
2010-10-21 06:42:42 51°13.662 2°55.961 123.6 -999 68 7.6
2010-10-21 06:42:46 51°13.662 2°55.961 123.6 -999 95 7.7
2010-10-21 06:42:52 51°13.662 2°55.961 123.6 -999 2 7.6
2010-10-21 06:42:57 51°13.662 2°55.961 123.6 -999 26 8.3
2010-10-21 06:43:02 51°13.662 2°55.961 123.7 -999 189 5.8
2010-10-21 06:43:06 51°13.662 2°55.961 123.7 -999 47 5.8
2010-10-21 06:43:12 51°13.662 2°55.961 123.8 -999 353 7.6
2010-10-21 06:43:16 51°13.662 2°55.961 123.8 -999 195 7.6
2010-10-21 06:43:22 51°13.662 2°55.961 123.8 -999 5 7.6
2010-10-21 06:43:26 51°13.662 2°55.961 123.7 -999 205 7.6
2010-10-21 06:43:31 51°13.662 2°55.961 123.7 -999 141 7.6
2010-10-21 06:43:36 51°13.662 2°55.961 123.6 -999 179 7.7
2010-10-21 06:43:42 51°13.662 2°55.961 123.6 -999 226 5.8
2010-10-21 06:43:46 51°13.662 2°55.96 123.6 -999 208 5.8
2010-10-21 06:43:51 51°13.662 2°55.96 123.7 -999 198 7.7
2010-10-21 06:43:56 51°13.662 2°55.96 123.8 -999 24 7.7
2010-10-21 06:44:02 51°13.662 2°55.96 123.8 -999 116 7.7
2010-10-21 06:44:06 51°13.662 2°55.96 123.9 -999 309 7.7
2010-10-21 06:44:11 51°13.662 2°55.96 124.2 -999 217 7.7
2010-10-21 06:44:16 51°13.662 2°55.961 124.2 -999 49 5.8
2010-10-21 06:44:22 51°13.662 2°55.961 124.4 -999 357 7.7
2010-10-21 06:44:26 51°13.662 2°55.961 124.5 -999 359 7.7
2010-10-21 06:44:31 51°13.662 2°55.961 124.5 -999 358 7.7
2010-10-21 06:44:36 51°13.662 2°55.961 124.5 -999 282 7.7
2010-10-21 06:44:42 51°13.662 2°55.961 124.5 -999 356 5.8
2010-10-21 06:44:46 51°13.662 2°55.961 124.4 -999 335 7.7
2010-10-21 06:44:52 51°13.662 2°55.961 124.3 -999 279 7.7
2010-10-21 06:44:56 51°13.662 2°55.961 124.2 -999 343 7.7
2010-10-21 06:45:02 51°13.662 2°55.961 124.2 -999 250 7.7
2010-10-21 06:45:06 51°13.662 2°55.961 124.1 -999 348 7.7
2010-10-21 06:45:12 51°13.662 2°55.961 123.8 -999 252 7.7
2010-10-21 06:45:17 51°13.662 2°55.96 123.6 -999 291 7.6
2010-10-21 06:45:22 51°13.662 2°55.96 123.4 -999 218 7.7
2010-10-21 06:45:26 51°13.662 2°55.96 123.3 -999 34 7.7
2010-10-21 06:45:32 51°13.662 2°55.96 123.2 -999 155 7.7
2010-10-21 06:45:36 51°13.662 2°55.96 123.2 -999 270 7.7
2010-10-21 06:45:42 51°13.662 2°55.96 123.2 -999 233 5.8
2010-10-21 06:45:46 51°13.662 2°55.96 123.2 -999 11 7.7
2010-10-21 06:45:52 51°13.662 2°55.96 123.2 -999 318 7.7
2010-10-21 06:45:56 51°13.662 2°55.96 123.3 -999 18 7.7
2010-10-21 06:46:02 51°13.662 2°55.96 123.3 -999 330 7.7
2010-10-21 06:46:06 51°13.662 2°55.96 123.2 -999 187 7.7
2010-10-21 06:46:11 51°13.662 2°55.96 123.2 -999 319 5.8
2010-10-21 06:46:16 51°13.662 2°55.96 123.1 -999 128 5.8
2010-10-21 06:46:22 51°13.662 2°55.96 123.1 -999 352 7.7
2010-10-21 06:46:26 51°13.662 2°55.96 123.1 -999 17 7.6
2010-10-21 06:46:31 51°13.662 2°55.96 123.1 -999 220 7.7
2010-10-21 06:46:36 51°13.662 2°55.96 123.1 -999 306 7.7
2010-10-21 06:46:42 51°13.662 2°55.96 123.1 -999 41 7.7
2010-10-21 06:46:47 51°13.662 2°55.96 123.1 -999 318 7.6
2010-10-21 06:46:52 51°13.662 2°55.96 123.1 -999 166 7.7
2010-10-21 06:46:56 51°13.662 2°55.96 123.2 -999 196 7.7
2010-10-21 06:47:02 51°13.662 2°55.96 123.2 -999 7 7.7
2010-10-21 06:47:06 51°13.663 2°55.959 123.2 -999 81 7.7
2010-10-21 06:47:11 51°13.663 2°55.959 123.2 -999 198 7.7
2010-10-21 06:47:17 51°13.663 2°55.959 123.2 -999 191 7.7
2010-10-21 06:47:22 51°13.663 2°55.959 123.2 -999 199 7.7
2010-10-21 06:47:26 51°13.663 2°55.959 123.3 -999 104 5.8
2010-10-21 06:47:31 51°13.663 2°55.959 123.5 -999 176 7.7
2010-10-21 06:47:36 51°13.663 2°55.959 123.5 -999 59 7.7
2010-10-21 06:47:42 51°13.663 2°55.96 123.7 -999 176 7.7
2010-10-21 06:47:46 51°13.663 2°55.96 123.9 -999 110 7.8
2010-10-21 06:47:52 51°13.663 2°55.96 124.1 -999 161 7.8
2010-10-21 06:47:56 51°13.663 2°55.96 124.2 -999 194 7.8
2010-10-21 06:48:02 51°13.663 2°55.96 124.4 -999 10 5.8
2010-10-21 06:48:06 51°13.662 2°55.96 124.6 -999 198 7.7
2010-10-21 06:48:11 51°13.663 2°55.96 124.6 0.1 4 7.7
2010-10-21 06:48:16 51°13.662 2°55.96 124.6 0.1 233 7.7
2010-10-21 06:48:22 51°13.662 2°55.96 124.6 0.1 6 7.7
2010-10-21 06:48:26 51°13.662 2°55.959 124.3 -999 267 7.7
2010-10-21 06:48:31 51°13.663 2°55.959 124.2 -999 348 7.7
2010-10-21 06:48:36 51°13.662 2°55.959 123.8 -999 313 7.7
2010-10-21 06:48:42 51°13.662 2°55.96 123.5 -999 305 7.7
2010-10-21 06:48:46 51°13.661 2°55.96 123.3 -999 135 7.7
2010-10-21 06:48:51 51°13.661 2°55.96 123.2 -999 154 7.7
2010-10-21 06:48:57 51°13.661 2°55.96 123.2 -999 139 7.7
2010-10-21 06:49:02 51°13.661 2°55.96 123.5 -999 91 5.8
2010-10-21 06:49:06 51°13.661 2°55.96 123.7 -999 141 7.7
2010-10-21 06:49:11 51°13.662 2°55.96 123.9 -999 126 7.7
2010-10-21 06:49:17 51°13.662 2°55.96 124.2 -999 144 7.7
2010-10-21 06:49:22 51°13.662 2°55.96 124.6 -999 118 7.7
2010-10-21 06:49:26 51°13.662 2°55.96 124.9 -999 12 5.8
2010-10-21 06:49:32 51°13.662 2°55.96 125 0.1 8 5.8
2010-10-21 06:49:37 51°13.662 2°55.96 125.1 -999 245 7.7
2010-10-21 06:49:42 51°13.662 2°55.96 125.1 0.1 7 7.7
2010-10-21 06:49:46 51°13.662 2°55.96 125.1 -999 283 7.6
2010-10-21 06:49:52 51°13.662 2°55.96 124.9 0.1 356 7.7
2010-10-21 06:49:57 51°13.662 2°55.96 124.7 -999 293 5.8
2010-10-21 06:50:02 51°13.662 2°55.96 124.4 -999 356 7.7
2010-10-21 06:50:06 51°13.662 2°55.96 124.2 -999 286 7.7
2010-10-21 06:50:11 51°13.662 2°55.96 123.9 -999 253 7.7
2010-10-21 06:50:16 51°13.663 2°55.96 123.5 -999 319 7.7
2010-10-21 06:50:22 51°13.663 2°55.96 123.4 -999 317 7.8
2010-10-21 06:50:26 51°13.663 2°55.96 123.2 -999 19 7.7
2010-10-21 06:50:30 51°13.662 2°55.96 123.1 -999 213 5.8
2010-10-21 06:50:37 51°13.662 2°55.96 123.1 -999 26 7.7
2010-10-21 06:50:42 51°13.662 2°55.96 123.1 -999 54 7.8
2010-10-21 06:50:46 51°13.662 2°55.96 123.1 -999 206 7.8
2010-10-21 06:50:51 51°13.662 2°55.96 123.2 -999 319 7.8
2010-10-21 06:50:56 51°13.663 2°55.96 123.2 -999 18 7.8
2010-10-21 06:51:02 51°13.663 2°55.96 123.2 -999 319 7.8
2010-10-21 06:51:06 51°13.663 2°55.96 123.2 -999 27 7.8
2010-10-21 06:51:11 51°13.663 2°55.96 123.2 -999 114 7.8
2010-10-21 06:51:16 51°13.663 2°55.96 123.2 -999 250 7.8
2010-10-21 06:51:22 51°13.663 2°55.96 123.2 -999 263 7.7
2010-10-21 06:51:26 51°13.663 2°55.96 123.2 -999 243 7.7
2010-10-21 06:51:31 51°13.663 2°55.96 123.2 -999 117 7.8
2010-10-21 06:51:37 51°13.663 2°55.96 123.2 -999 92 7.8
2010-10-21 06:51:42 51°13.663 2°55.96 123.4 -999 127 7.8
2010-10-21 06:51:46 51°13.663 2°55.96 123.5 -999 119 7.7
2010-10-21 06:51:51 51°13.663 2°55.96 123.5 -999 151 7.8
2010-10-21 06:51:56 51°13.663 2°55.96 123.7 -999 314 7.8
2010-10-21 06:52:02 51°13.663 2°55.96 123.8 -999 270 7.8
2010-10-21 06:52:06 51°13.663 2°55.96 123.8 -999 67 5.8
2010-10-21 06:52:12 51°13.663 2°55.96 123.8 -999 309 7.8
2010-10-21 06:52:16 51°13.663 2°55.96 123.8 -999 321 7.8
2010-10-21 06:52:22 51°13.663 2°55.96 123.8 -999 357 7.8
2010-10-21 06:52:26 51°13.663 2°55.96 123.6 -999 249 5.8
2010-10-21 06:52:32 51°13.663 2°55.96 123.5 -999 53 7.8
2010-10-21 06:52:37 51°13.663 2°55.96 123.3 -999 215 7.8
2010-10-21 06:52:42 51°13.663 2°55.96 123.3 -999 344 7.8
2010-10-21 06:52:46 51°13.663 2°55.96 123.3 -999 189 7.8
2010-10-21 06:52:51 51°13.663 2°55.96 123.3 -999 18 7.8
2010-10-21 06:52:57 51°13.663 2°55.96 123.3 -999 109 7.8
2010-10-21 06:53:02 51°13.663 2°55.96 123.3 -999 353 7.8
2010-10-21 06:53:06 51°13.663 2°55.96 123.3 -999 8 7.7
2010-10-21 06:53:11 51°13.663 2°55.96 123.3 -999 116 7.8
2010-10-21 06:53:16 51°13.663 2°55.96 123.4 -999 174 7.7
2010-10-21 06:53:22 51°13.663 2°55.96 123.5 -999 283 7.8
2010-10-21 06:53:26 51°13.663 2°55.96 123.5 -999 341 7.7
2010-10-21 06:53:32 51°13.663 2°55.96 123.6 -999 27 -999
2010-10-21 06:53:37 51°13.663 2°55.96 123.8 -999 156 7.7
2010-10-21 06:53:42 51°13.663 2°55.96 123.8 -999 122 5.8
2010-10-21 06:53:47 51°13.663 2°55.96 123.9 -999 153 7.8
2010-10-21 06:53:52 51°13.663 2°55.96 124 -999 45 7.7
2010-10-21 06:53:57 51°13.663 2°55.96 124.2 -999 107 7.8
2010-10-21 06:54:02 51°13.663 2°55.96 124.3 -999 105 -999
2010-10-21 06:54:06 51°13.663 2°55.96 124.4 -999 173 7.8
2010-10-21 06:54:11 51°13.663 2°55.96 124.4 -999 132 7.8
2010-10-21 06:54:16 51°13.663 2°55.96 124.5 -999 198 7.8
2010-10-21 06:54:22 51°13.663 2°55.96 124.6 -999 103 7.8
2010-10-21 06:54:26 51°13.663 2°55.96 124.8 -999 185 5.8
2010-10-21 06:54:32 51°13.663 2°55.96 124.9 -999 196 -999
2010-10-21 06:54:37 51°13.663 2°55.96 125.1 -999 106 -999
2010-10-21 06:54:42 51°13.663 2°55.96 125.2 -999 343 7.8
2010-10-21 06:54:46 51°13.663 2°55.96 125.3 -999 324 7.8
2010-10-21 06:54:52 51°13.663 2°55.96 125.3 -999 291 7.8
2010-10-21 06:54:56 51°13.663 2°55.96 125.2 -999 350 7.8
2010-10-21 06:55:02 51°13.663 2°55.96 125 -999 319 7.8
2010-10-21 06:55:06 51°13.663 2°55.96 124.8 -999 325 7.8
2010-10-21 06:55:11 51°13.663 2°55.96 124.5 -999 320 7.8
2010-10-21 06:55:16 51°13.663 2°55.96 124.2 -999 257 7.8
2010-10-21 06:55:22 51°13.663 2°55.96 124 -999 215 7.8
2010-10-21 06:55:26 51°13.663 2°55.96 123.8 -999 58 -999
2010-10-21 06:55:32 51°13.663 2°55.96 123.5 -999 354 7.8
2010-10-21 06:55:37 51°13.663 2°55.96 123.5 -999 283 7.8
2010-10-21 06:55:42 51°13.663 2°55.96 123.4 -999 38 5.8
2010-10-21 06:55:46 51°13.662 2°55.96 123.2 -999 244 7.8
2010-10-21 06:55:52 51°13.662 2°55.96 123.2 -999 12 -999
2010-10-21 06:55:57 51°13.662 2°55.96 123.2 -999 188 7.8
2010-10-21 06:56:02 51°13.661 2°55.961 123.2 -999 132 7.8
2010-10-21 06:56:07 51°13.661 2°55.961 123.4 -999 220 7.8
2010-10-21 06:56:12 51°13.661 2°55.961 123.4 -999 358 7.8
2010-10-21 06:56:17 51°13.66 2°55.96 123.4 -999 303 7.8
2010-10-21 06:56:22 51°13.661 2°55.96 123.4 -999 288 7.8
2010-10-21 06:56:26 51°13.661 2°55.96 123.2 -999 282 7.8
2010-10-21 06:56:32 51°13.661 2°55.96 123 -999 260 7.8
2010-10-21 06:56:36 51°13.661 2°55.961 123 -999 306 7.8
2010-10-21 06:56:42 51°13.661 2°55.96 122.9 -999 317 5.8
2010-10-21 06:56:46 51°13.66 2°55.961 122.9 -999 176 -999
2010-10-21 06:56:52 51°13.659 2°55.961 122.9 -999 200 7.7
2010-10-21 06:56:57 51°13.66 2°55.961 122.9 -999 256 7.8
2010-10-21 06:57:02 51°13.66 2°55.961 122.9 -999 -999 7.8
2010-10-21 06:57:06 51°13.66 2°55.961 122.9 -999 321 7.7
2010-10-21 06:57:12 51°13.66 2°55.959 122.9 -999 25 7.8
2010-10-21 06:57:17 51°13.66 2°55.958 122.9 -999 73 7.8
2010-10-21 06:57:22 51°13.66 2°55.958 122.9 -999 358 7.8
2010-10-21 06:57:26 51°13.66 2°55.958 122.9 -999 285 7.8
2010-10-21 06:57:31 51°13.66 2°55.958 122.9 -999 28 5.8
2010-10-21 06:57:36 51°13.659 2°55.958 122.9 -999 138 5.8
2010-10-21 06:57:42 51°13.66 2°55.959 122.9 -999 176 -999
2010-10-21 06:57:46 51°13.66 2°55.959 123 -999 52 7.7
2010-10-21 06:57:51 51°13.66 2°55.959 123.1 -999 165 7.8
2010-10-21 06:57:56 51°13.661 2°55.959 123.2 -999 51 5.8
2010-10-21 06:58:02 51°13.661 2°55.959 123.4 -999 156 7.8
2010-10-21 06:58:06 51°13.661 2°55.959 123.5 -999 32 7.8
2010-10-21 06:58:11 51°13.661 2°55.959 123.5 -999 207 7.8
2010-10-21 06:58:16 51°13.662 2°55.96 123.6 -999 12 5.8
2010-10-21 06:58:22 51°13.662 2°55.959 123.6 -999 218 -999
2010-10-21 06:58:26 51°13.662 2°55.96 123.7 -999 -999 7.8
2010-10-21 06:58:32 51°13.662 2°55.96 123.7 -999 341 7.8
2010-10-21 06:58:36 51°13.662 2°55.96 123.7 -999 241 7.8
2010-10-21 06:58:42 51°13.662 2°55.96 123.5 -999 328 7.8
2010-10-21 06:58:46 51°13.662 2°55.96 123.5 -999 198 7.8
2010-10-21 06:58:51 51°13.662 2°55.96 123.4 0.1 354 7.8
2010-10-21 06:58:56 51°13.662 2°55.96 123.2 -999 182 7.8
2010-10-21 06:59:02 51°13.662 2°55.96 123.2 -999 29 7.8
2010-10-21 06:59:06 51°13.662 2°55.96 123 -999 236 7.8
2010-10-21 06:59:11 51°13.662 2°55.96 123 -999 44 7.8
2010-10-21 06:59:17 51°13.662 2°55.96 123 0.1 238 5.8
2010-10-21 06:59:22 51°13.662 2°55.96 123 -999 89 7.8
2010-10-21 06:59:26 51°13.662 2°55.96 123.2 -999 163 7.8
2010-10-21 06:59:31 51°13.662 2°55.96 123.2 -999 107 7.8
2010-10-21 06:59:36 51°13.662 2°55.96 123.4 -999 167 7.8
2010-10-21 06:59:42 51°13.662 2°55.96 123.5 -999 322 7.8
2010-10-21 06:59:46 51°13.662 2°55.96 123.7 -999 149 7.7
2010-10-21 06:59:51 51°13.662 2°55.96 123.8 -999 10 7.8
2010-10-21 06:59:56 51°13.662 2°55.96 123.8 -999 283 7.8
2010-10-21 07:00:02 51°13.662 2°55.96 123.8 -999 277 7.8
2010-10-21 07:00:06 51°13.662 2°55.96 123.8 -999 314 7.8
2010-10-21 07:00:11 51°13.662 2°55.96 123.6 -999 309 7.8
2010-10-21 07:00:16 51°13.662 2°55.96 123.5 -999 344 7.7
2010-10-21 07:00:22 51°13.662 2°55.96 123.3 -999 269 7.8
2010-10-21 07:00:26 51°13.662 2°55.96 123.2 -999 13 -999
2010-10-21 07:00:31 51°13.662 2°55.96 123.1 -999 260 7.8
2010-10-21 07:00:36 51°13.662 2°55.96 123.1 -999 333 7.7
2010-10-21 07:00:42 51°13.662 2°55.96 123.1 -999 215 7.8
2010-10-21 07:00:46 51°13.662 2°55.96 123.1 -999 150 7.8
2010-10-21 07:00:51 51°13.662 2°55.96 123.1 -999 85 7.8
2010-10-21 07:00:56 51°13.662 2°55.96 123.1 -999 316 7.7
2010-10-21 07:01:02 51°13.662 2°55.96 123.1 -999 307 7.7
2010-10-21 07:01:06 51°13.661 2°55.96 123.1 -999 17 5.8
2010-10-21 07:01:12 51°13.661 2°55.96 123.1 -999 123 7.8
2010-10-21 07:01:16 51°13.661 2°55.96 123.1 -999 68 7.8
2010-10-21 07:01:22 51°13.661 2°55.961 123.1 -999 287 7.7
2010-10-21 07:01:26 51°13.661 2°55.961 123.1 -999 286 7.7
2010-10-21 07:01:31 51°13.661 2°55.961 123.1 -999 38 7.7
2010-10-21 07:01:36 51°13.661 2°55.961 123.1 -999 163 5.8
2010-10-21 07:01:42 51°13.661 2°55.961 123.1 -999 284 7.8
2010-10-21 07:01:46 51°13.661 2°55.961 123.1 -999 282 7.8
2010-10-21 07:01:51 51°13.661 2°55.961 123.2 -999 1 7.7
2010-10-21 07:01:57 51°13.661 2°55.961 123.2 -999 316 7.7
2010-10-21 07:02:02 51°13.661 2°55.961 123.2 -999 271 7.7
2010-10-21 07:02:07 51°13.661 2°55.961 123.2 -999 330 7.8
2010-10-21 07:02:12 51°13.661 2°55.961 123.2 -999 209 7.7
2010-10-21 07:02:17 51°13.661 2°55.961 123.2 -999 208 7.8
2010-10-21 07:02:22 51°13.66 2°55.961 123.2 -999 294 7.8
2010-10-21 07:02:26 51°13.66 2°55.961 123.2 -999 252 5.8
2010-10-21 07:02:31 51°13.66 2°55.961 123.1 -999 206 7.8
2010-10-21 07:02:37 51°13.661 2°55.961 123 -999 200 7.8
2010-10-21 07:02:42 51°13.661 2°55.961 123 -999 39 7.8
2010-10-21 07:02:46 51°13.661 2°55.961 123 -999 65 7.8
2010-10-21 07:02:51 51°13.661 2°55.961 123 -999 33 7.7
2010-10-21 07:02:56 51°13.661 2°55.961 123 -999 280 7.8
2010-10-21 07:03:02 51°13.661 2°55.961 123 -999 73 7.8
2010-10-21 07:03:06 51°13.661 2°55.961 123 -999 2 7.8
2010-10-21 07:03:11 51°13.661 2°55.961 123 -999 70 7.7
2010-10-21 07:03:16 51°13.661 2°55.961 123 -999 270 7.8
2010-10-21 07:03:22 51°13.661 2°55.961 123 -999 61 7.8
2010-10-21 07:03:26 51°13.661 2°55.961 123 -999 134 7.8
2010-10-21 07:03:32 51°13.661 2°55.961 123.1 -999 358 7.8
2010-10-21 07:03:36 51°13.661 2°55.961 123.1 -999 22 5.8
2010-10-21 07:03:42 51°13.661 2°55.961 123.1 -999 311 7.8
2010-10-21 07:03:46 51°13.661 2°55.96 123.1 -999 296 7.7
2010-10-21 07:03:51 51°13.661 2°55.96 123.1 -999 302 5.8
2010-10-21 07:03:57 51°13.661 2°55.96 123 -999 318 5.9
2010-10-21 07:04:02 51°13.661 2°55.96 122.9 -999 104 -999
2010-10-21 07:04:06 51°13.661 2°55.96 122.9 -999 59 7.8
2010-10-21 07:04:11 51°13.661 2°55.96 122.9 -999 82 5.8
2010-10-21 07:04:17 51°13.661 2°55.96 122.9 -999 7 -999
2010-10-21 07:04:22 51°13.661 2°55.96 122.9 -999 109 5.8
2010-10-21 07:04:26 51°13.661 2°55.96 122.9 -999 150 5.8
2010-10-21 07:04:31 51°13.661 2°55.96 122.9 -999 14 7.8
2010-10-21 07:04:36 51°13.661 2°55.96 123 -999 301 7.7
2010-10-21 07:04:42 51°13.661 2°55.96 123.1 -999 209 7.7
2010-10-21 07:04:46 51°13.661 2°55.96 123.1 -999 358 7.8
2010-10-21 07:04:51 51°13.661 2°55.96 123.1 -999 212 7.8
2010-10-21 07:04:57 51°13.661 2°55.96 123.1 -999 336 7.8
2010-10-21 07:05:02 51°13.661 2°55.96 123 -999 224 7.8
2010-10-21 07:05:06 51°13.661 2°55.96 123 -999 63 7.8
2010-10-21 07:05:11 51°13.661 2°55.96 123 -999 279 7.8
2010-10-21 07:05:16 51°13.661 2°55.96 123 -999 47 7.7
2010-10-21 07:05:22 51°13.661 2°55.96 123 -999 357 7.8
2010-10-21 07:05:26 51°13.661 2°55.96 123 -999 349 7.8
2010-10-21 07:05:32 51°13.662 2°55.96 123.1 -999 65 7.8
2010-10-21 07:05:36 51°13.662 2°55.96 123.1 -999 212 7.8
2010-10-21 07:05:42 51°13.662 2°55.96 123.1 -999 261 7.7
2010-10-21 07:05:46 51°13.662 2°55.96 123.1 -999 11 7.7
2010-10-21 07:05:51 51°13.662 2°55.96 123.1 -999 100 7.7
2010-10-21 07:05:57 51°13.662 2°55.96 123.1 -999 203 7.8
2010-10-21 07:06:02 51°13.662 2°55.96 123.1 -999 38 7.8
2010-10-21 07:06:06 51°13.662 2°55.96 123.2 -999 127 7.8
2010-10-21 07:06:11 51°13.662 2°55.96 123.3 -999 187 7.8
2010-10-21 07:06:16 51°13.662 2°55.96 123.5 -999 178 -999
2010-10-21 07:06:22 51°13.662 2°55.96 123.5 -999 2 7.8
2010-10-21 07:06:26 51°13.662 2°55.96 123.5 -999 354 7.8
2010-10-21 07:06:31 51°13.662 2°55.96 123.6 -999 25 7.8
2010-10-21 07:06:36 51°13.662 2°55.96 123.6 -999 15 7.8
2010-10-21 07:06:42 51°13.662 2°55.96 123.6 -999 26 7.8
2010-10-21 07:06:46 51°13.662 2°55.96 123.6 -999 273 7.8
2010-10-21 07:06:52 51°13.662 2°55.96 123.5 -999 31 5.8
2010-10-21 07:06:56 51°13.662 2°55.96 123.5 -999 240 7.8
2010-10-21 07:07:02 51°13.662 2°55.96 123.5 -999 23 7.8
2010-10-21 07:07:06 51°13.662 2°55.96 123.4 -999 181 7.8
2010-10-21 07:07:11 51°13.662 2°55.96 123.4 -999 199 7.8
2010-10-21 07:07:16 51°13.662 2°55.96 123.4 -999 139 7.8
2010-10-21 07:07:22 51°13.662 2°55.96 123.5 -999 198 7.8
2010-10-21 07:07:26 51°13.662 2°55.96 123.5 -999 14 7.8
2010-10-21 07:07:32 51°13.662 2°55.96 123.5 -999 221 7.8
2010-10-21 07:07:36 51°13.662 2°55.96 123.5 -999 271 7.7
2010-10-21 07:07:42 51°13.662 2°55.96 123.5 -999 1 5.8
2010-10-21 07:07:46 51°13.662 2°55.96 123.5 -999 16 7.8
2010-10-21 07:07:51 51°13.662 2°55.96 123.5 -999 4 7.8
2010-10-21 07:07:57 51°13.662 2°55.96 123.3 -999 5 7.8
2010-10-21 07:08:02 51°13.662 2°55.96 123.2 -999 268 7.7
2010-10-21 07:08:06 51°13.662 2°55.96 123.1 -999 42 7.8
2010-10-21 07:08:11 51°13.662 2°55.96 123 -999 57 5.8
2010-10-21 07:08:17 51°13.662 2°55.96 123 -999 230 5.8
2010-10-21 07:08:22 51°13.662 2°55.96 123 -999 41 7.8
2010-10-21 07:08:26 51°13.662 2°55.96 123 -999 201 7.8
2010-10-21 07:08:31 51°13.662 2°55.961 123.1 -999 89 7.8
2010-10-21 07:08:36 51°13.662 2°55.961 123.1 -999 151 7.8
2010-10-21 07:08:42 51°13.662 2°55.96 123.3 -999 184 7.8
2010-10-21 07:08:46 51°13.662 2°55.96 123.4 -999 257 7.8
2010-10-21 07:08:51 51°13.662 2°55.96 123.4 -999 286 7.8
2010-10-21 07:08:56 51°13.662 2°55.96 123.5 -999 275 7.8
2010-10-21 07:09:02 51°13.662 2°55.961 123.5 -999 31 7.8
2010-10-21 07:09:06 51°13.662 2°55.961 123.5 -999 34 7.8
2010-10-21 07:09:12 51°13.662 2°55.961 123.4 -999 345 7.8
2010-10-21 07:09:16 51°13.662 2°55.961 123.2 -999 214 7.8
2010-10-21 07:09:22 51°13.662 2°55.961 123.1 -999 29 7.8
2010-10-21 07:09:26 51°13.662 2°55.961 123.1 -999 174 7.8
2010-10-21 07:09:31 51°13.662 2°55.961 123.1 -999 6 7.8
2010-10-21 07:09:36 51°13.662 2°55.961 123 -999 200 7.8
2010-10-21 07:09:42 51°13.662 2°55.961 123 -999 26 -999
2010-10-21 07:09:47 51°13.662 2°55.961 123 -999 336 7.8
2010-10-21 07:09:52 51°13.662 2°55.961 123.1 -999 11 -999
2010-10-21 07:09:57 51°13.662 2°55.961 123.2 -999 24 7.8
2010-10-21 07:10:02 51°13.662 2°55.961 123.2 -999 55 7.8
2010-10-21 07:10:06 51°13.662 2°55.961 123.2 -999 148 8.1
2010-10-21 07:10:12 51°13.662 2°55.961 123.3 -999 19 7.8
2010-10-21 07:10:17 51°13.662 2°55.961 123.4 -999 185 7.8
2010-10-21 07:10:22 51°13.662 2°55.961 123.5 -999 137 7.8
2010-10-21 07:10:26 51°13.662 2°55.961 123.5 -999 191 7.8
2010-10-21 07:10:31 51°13.662 2°55.961 123.5 -999 46 7.8
2010-10-21 07:10:37 51°13.662 2°55.961 123.5 -999 199 7.8
2010-10-21 07:10:42 51°13.662 2°55.961 123.6 -999 9 -999
2010-10-21 07:10:46 51°13.662 2°55.961 123.7 -999 216 -999
2010-10-21 07:10:50 51°13.662 2°55.961 123.8 -999 134 7.8
2010-10-21 07:10:57 51°13.662 2°55.961 123.9 -999 138 7.8
2010-10-21 07:11:02 51°13.662 2°55.961 124.2 -999 112 7.8
2010-10-21 07:11:06 51°13.662 2°55.961 124.4 -999 129 7.8
2010-10-21 07:11:11 51°13.662 2°55.961 124.8 -999 80 -999
2010-10-21 07:11:17 51°13.662 2°55.961 125 0.1 4 7.8
2010-10-21 07:11:22 51°13.662 2°55.961 125.2 -999 170 7.8
2010-10-21 07:11:26 51°13.662 2°55.961 125.2 -999 256 7.8
2010-10-21 07:11:31 51°13.662 2°55.961 125.2 -999 328 7.8
2010-10-21 07:11:36 51°13.662 2°55.961 125.2 -999 28 7.9
2010-10-21 07:11:42 51°13.662 2°55.961 125.2 -999 169 7.8
2010-10-21 07:11:46 51°13.662 2°55.961 125.2 -999 135 7.8
2010-10-21 07:11:51 51°13.662 2°55.961 125.2 -999 122 5.9
2010-10-21 07:11:56 51°13.662 2°55.961 125.2 -999 27 5.9
2010-10-21 07:12:02 51°13.662 2°55.961 125.2 -999 331 -999
2010-10-21 07:12:06 51°13.662 2°55.961 125.2 -999 274 7.8
2010-10-21 07:12:12 51°13.662 2°55.961 125.2 -999 168 7.8
2010-10-21 07:12:16 51°13.662 2°55.961 125.2 -999 338 7.8
2010-10-21 07:12:22 51°13.662 2°55.961 125.2 -999 282 7.9
2010-10-21 07:12:26 51°13.662 2°55.961 125.2 -999 306 7.8
2010-10-21 07:12:32 51°13.662 2°55.961 125.2 -999 175 7.8
2010-10-21 07:12:36 51°13.662 2°55.961 125.2 -999 76 7.8
2010-10-21 07:12:42 51°13.662 2°55.961 125.2 -999 249 7.8
2010-10-21 07:12:46 51°13.662 2°55.961 125.2 -999 50 5.9
2010-10-21 07:12:51 51°13.662 2°55.961 125.2 -999 6 7.8
2010-10-21 07:12:56 51°13.662 2°55.96 125.2 -999 258 -999
2010-10-21 07:13:02 51°13.662 2°55.96 125.2 -999 239 7.8
2010-10-21 07:13:06 51°13.662 2°55.96 125.2 -999 240 5.9
2010-10-21 07:13:11 51°13.662 2°55.96 125.1 -999 330 7.8
2010-10-21 07:13:17 51°13.662 2°55.96 125.1 -999 280 -999
2010-10-21 07:13:22 51°13.662 2°55.96 125.1 -999 285 7.9
2010-10-21 07:13:26 51°13.663 2°55.96 125.1 -999 51 7.9
2010-10-21 07:13:31 51°13.663 2°55.96 125.1 -999 256 7.9
2010-10-21 07:13:36 51°13.663 2°55.96 125.1 -999 325 7.8
2010-10-21 07:13:42 51°13.663 2°55.959 125.1 -999 229 7.9
2010-10-21 07:13:46 51°13.663 2°55.959 125.2 -999 61 5.9
2010-10-21 07:13:51 51°13.663 2°55.959 125.2 -999 182 7.8
2010-10-21 07:13:56 51°13.663 2°55.959 125.2 -999 12 7.9
2010-10-21 07:14:02 51°13.663 2°55.959 125.2 -999 294 7.9
2010-10-21 07:14:06 51°13.663 2°55.959 125.2 -999 90 7.8
2010-10-21 07:14:11 51°13.663 2°55.959 125.2 -999 38 7.9
2010-10-21 07:14:17 51°13.663 2°55.959 125.2 -999 320 7.9
2010-10-21 07:14:22 51°13.662 2°55.959 125.2 -999 238 7.8
2010-10-21 07:14:26 51°13.662 2°55.959 125.2 -999 237 7.9
2010-10-21 07:14:32 51°13.662 2°55.959 125.2 -999 304 5.9
2010-10-21 07:14:36 51°13.662 2°55.959 125.2 -999 12 7.9
2010-10-21 07:14:42 51°13.662 2°55.959 125.2 -999 195 7.9
2010-10-21 07:14:46 51°13.662 2°55.959 125.2 -999 69 -999
2010-10-21 07:14:52 51°13.662 2°55.959 125.2 -999 224 7.9
2010-10-21 07:14:56 51°13.662 2°55.958 125.2 -999 350 7.8
2010-10-21 07:15:02 51°13.662 2°55.958 125.2 -999 346 7.8
2010-10-21 07:15:06 51°13.662 2°55.958 125.2 -999 323 7.9
2010-10-21 07:15:11 51°13.662 2°55.958 125.3 -999 106 7.9
2010-10-21 07:15:16 51°13.661 2°55.959 125.3 -999 259 7.8
2010-10-21 07:15:22 51°13.661 2°55.958 125.3 -999 180 7.8
2010-10-21 07:15:26 51°13.661 2°55.958 125.3 -999 215 5.9
2010-10-21 07:15:31 51°13.662 2°55.959 125.3 -999 25 7.9
2010-10-21 07:15:36 51°13.662 2°55.959 125.3 0.1 340 7.9
2010-10-21 07:15:42 51°13.663 2°55.959 125.2 -999 194 7.8
2010-10-21 07:15:46 51°13.663 2°55.96 125.2 -999 160 7.9
2010-10-21 07:15:51 51°13.663 2°55.96 125.2 -999 212 5.9
2010-10-21 07:15:56 51°13.663 2°55.96 125.3 -999 318 5.9
2010-10-21 07:16:02 51°13.663 2°55.96 125.3 -999 217 7.9
2010-10-21 07:16:06 51°13.663 2°55.959 125.3 -999 260 7.8
2010-10-21 07:16:11 51°13.663 2°55.959 125.5 -999 312 7.9
2010-10-21 07:16:16 51°13.663 2°55.959 125.7 0.1 221 7.9
2010-10-21 07:16:22 51°13.663 2°55.959 126.3 0.1 292 7.9
2010-10-21 07:16:26 51°13.663 2°55.959 126.9 0.1 259 8
2010-10-21 07:16:31 51°13.663 2°55.959 127.5 -999 235 5.9
2010-10-21 07:16:37 51°13.663 2°55.959 127.7 0.1 46 5.9
2010-10-21 07:16:42 51°13.663 2°55.96 127.7 0.1 102 8
2010-10-21 07:16:46 51°13.663 2°55.96 127.5 0.1 90 7.9
2010-10-21 07:16:52 51°13.663 2°55.96 126.6 0.1 85 7.9
2010-10-21 07:16:56 51°13.663 2°55.96 125.3 0.1 156 7.8
2010-10-21 07:17:02 51°13.663 2°55.96 123.8 -999 196 7.9
2010-10-21 07:17:06 51°13.663 2°55.96 122.9 -999 213 7.8
2010-10-21 07:17:12 51°13.663 2°55.96 122 0.1 172 7.9
2010-10-21 07:17:17 51°13.663 2°55.96 121.1 0.1 180 7.9
2010-10-21 07:17:22 51°13.663 2°55.96 120.2 0.1 210 7.9
2010-10-21 07:17:26 51°13.663 2°55.96 119.3 0.1 191 7.9
2010-10-21 07:17:31 51°13.663 2°55.96 118.5 0.1 203 7.9
2010-10-21 07:17:36 51°13.663 2°55.96 117.9 0.1 192 7.9
2010-10-21 07:17:42 51°13.663 2°55.96 116.9 0.1 193 7.9
2010-10-21 07:17:46 51°13.663 2°55.96 116.2 0.1 190 7.9
2010-10-21 07:17:51 51°13.663 2°55.96 115.3 0.1 191 5.9
2010-10-21 07:17:56 51°13.663 2°55.96 114.7 -999 194 8
2010-10-21 07:18:02 51°13.663 2°55.96 113.6 -999 200 7.9
2010-10-21 07:18:06 51°13.663 2°55.96 112.6 -999 211 7.9
2010-10-21 07:18:11 51°13.662 2°55.96 111.7 0.1 196 7.9
2010-10-21 07:18:17 51°13.662 2°55.96 110.9 0.1 212 8
2010-10-21 07:18:22 51°13.662 2°55.959 110.1 0.1 279 7.9
2010-10-21 07:18:26 51°13.663 2°55.959 109.6 0.3 286 8
2010-10-21 07:18:31 51°13.663 2°55.957 109.3 0.7 296 8.1
2010-10-21 07:18:36 51°13.664 2°55.955 109.2 1 295 8
2010-10-21 07:18:42 51°13.665 2°55.952 109.2 1.4 294 8.1
2010-10-21 07:18:46 51°13.666 2°55.949 109.5 1.9 295 8
2010-10-21 07:18:52 51°13.667 2°55.943 109.9 2.3 294 -999
2010-10-21 07:18:57 51°13.669 2°55.938 110 2.8 296 -999
2010-10-21 07:19:03 51°13.671 2°55.93 109.5 3.2 293 -999
2010-10-21 07:19:08 51°13.673 2°55.922 108.7 3.7 294 -999
2010-10-21 07:19:14 51°13.676 2°55.912 107.7 4 291 -999
2010-10-21 07:19:20 51°13.678 2°55.902 106.5 4.2 289 -999
2010-10-21 07:19:25 51°13.68 2°55.892 105.1 4.5 288 -999
2010-10-21 07:19:30 51°13.682 2°55.882 103.4 4.7 286 -999
2010-10-21 07:19:35 51°13.683 2°55.872 102.4 4.8 285 -999
2010-10-21 07:19:40 51°13.685 2°55.861 101.4 4.9 283 -999
2010-10-21 07:19:45 51°13.686 2°55.851 100.5 4.9 283 -999
2010-10-21 07:19:50 51°13.688 2°55.841 99.4 4.8 282 -999
2010-10-21 07:19:55 51°13.689 2°55.83 98.4 4.6 282 -999
2010-10-21 07:20:00 51°13.69 2°55.821 97.6 4.4 280 -999
2010-10-21 07:20:05 51°13.691 2°55.812 96.7 4.3 280 -999
2010-10-21 07:20:10 51°13.692 2°55.803 95.6 4.2 279 -999
2010-10-21 07:20:15 51°13.693 2°55.794 94.4 4.1 278 -999
2010-10-21 07:20:20 51°13.694 2°55.785 92.9 3.9 277 -999
2010-10-21 07:20:25 51°13.694 2°55.777 91.3 3.7 277 -999
2010-10-21 07:20:30 51°13.694 2°55.769 89.4 3.6 275 -999
2010-10-21 07:20:35 51°13.694 2°55.761 87.4 3.4 274 -999
2010-10-21 07:20:40 51°13.695 2°55.754 85.6 3.2 274 4.8
2010-10-21 07:20:45 51°13.695 2°55.749 84.5 2.4 272 13.4
2010-10-21 07:20:50 51°13.695 2°55.746 82.7 1.6 277 13.3
2010-10-21 07:20:54 51°13.695 2°55.745 79 0.8 275 13.2
2010-10-21 07:20:59 51°13.695 2°55.744 75.3 0.6 299 13.4
2010-10-21 07:21:04 51°13.696 2°55.743 69.6 0.3 329 13.4
2010-10-21 07:21:09 51°13.696 2°55.743 64.3 0.5 357 13.4
2010-10-21 07:21:14 51°13.697 2°55.744 59.5 0.5 17 13.4
2010-10-21 07:21:18 51°13.697 2°55.744 54.9 0.7 21 13.4
2010-10-21 07:21:23 51°13.698 2°55.745 49.3 0.8 27 13.4
2010-10-21 07:21:28 51°13.7 2°55.746 45.6 0.9 27 13.3
2010-10-21 07:21:34 51°13.701 2°55.747 40.9 0.9 26 13.4
2010-10-21 07:21:38 51°13.702 2°55.748 36.4 0.9 21 13.3
2010-10-21 07:21:43 51°13.703 2°55.748 32.7 0.6 17 13.3
2010-10-21 07:21:47 51°13.704 2°55.748 29.8 0.3 349 13.3
2010-10-21 07:21:53 51°13.703 2°55.748 26.3 0.3 233 13.3
2010-10-21 07:21:58 51°13.702 2°55.747 23.2 0.7 214 13.2
2010-10-21 07:22:02 51°13.701 2°55.746 20.3 1 206 13.2
2010-10-21 07:22:07 51°13.7 2°55.745 17.7 1.2 205 13.1
2010-10-21 07:22:12 51°13.698 2°55.744 15.3 1.1 203 13.4
2010-10-21 07:22:17 51°13.697 2°55.743 13.2 1.1 203 6.9
2010-10-21 07:22:22 51°13.696 2°55.742 11 0.8 204 -999
2010-10-21 07:22:27 51°13.696 2°55.742 8.6 0.3 236 -999
2010-10-21 07:22:33 51°13.697 2°55.742 5.2 0.7 351 -999
2010-10-21 07:22:38 51°13.699 2°55.741 359.6 1.5 346 -999
2010-10-21 07:22:45 51°13.703 2°55.739 352.2 2.1 343 -999
2010-10-21 07:22:50 51°13.707 2°55.737 343.6 2.6 339 13.2
2010-10-21 07:22:54 51°13.71 2°55.734 339.1 3.2 335 13
2010-10-21 07:22:59 51°13.715 2°55.731 335.9 3.8 335 12.6
2010-10-21 07:23:04 51°13.72 2°55.726 333.6 4.3 332 12.3
2010-10-21 07:23:09 51°13.726 2°55.721 331.8 4.8 332 12.2
2010-10-21 07:23:14 51°13.733 2°55.715 331.3 5.3 331 12.2
2010-10-21 07:23:19 51°13.739 2°55.709 331.3 5.8 332 12.1
2010-10-21 07:23:24 51°13.747 2°55.702 331.3 6.3 331 12.1
2010-10-21 07:23:29 51°13.755 2°55.695 331.3 6.7 331 12.2
2010-10-21 07:23:34 51°13.764 2°55.687 331.8 7.3 331 11.6
2010-10-21 07:23:38 51°13.771 2°55.68 332.3 7.5 331 11.6
2010-10-21 07:23:43 51°13.781 2°55.672 332.5 8 332 -999
2010-10-21 07:23:48 51°13.792 2°55.664 333.2 8.3 333 11.6
2010-10-21 07:23:54 51°13.805 2°55.654 334.2 8.6 334 11.7
2010-10-21 07:23:58 51°13.814 2°55.647 334.4 8.9 333 12
2010-10-21 07:24:03 51°13.825 2°55.638 334 9.1 334 11.8
2010-10-21 07:24:08 51°13.837 2°55.629 334 9.3 334 11.7
2010-10-21 07:24:13 51°13.849 2°55.621 334 9.4 335 11.5
2010-10-21 07:24:18 51°13.861 2°55.611 334 9.6 334 11.5
2010-10-21 07:24:23 51°13.874 2°55.602 334 9.7 335 11
2010-10-21 07:24:28 51°13.886 2°55.593 334 9.9 334 11.3
2010-10-21 07:24:33 51°13.899 2°55.583 334 10.1 334 11.4
2010-10-21 07:24:37 51°13.909 2°55.575 334 10.1 335 10.8
2010-10-21 07:24:42 51°13.922 2°55.566 334.8 10.3 335 10.9
2010-10-21 07:24:47 51°13.935 2°55.556 334.4 10.4 334 -999
2010-10-21 07:24:52 51°13.948 2°55.546 334 10.4 335 11
2010-10-21 07:24:58 51°13.964 2°55.534 334.7 10.5 335 -999
2010-10-21 07:25:03 51°13.977 2°55.524 334.6 10.6 334 -999
2010-10-21 07:25:09 51°13.993 2°55.512 334.7 10.7 336 -999
2010-10-21 07:25:14 51°14.007 2°55.503 335.4 10.7 336 10.9
2010-10-21 07:25:19 51°14.021 2°55.493 335.7 10.9 335 10.6
2010-10-21 07:25:24 51°14.035 2°55.483 335.6 10.9 336 10.2
2010-10-21 07:25:29 51°14.048 2°55.473 335.7 10.9 334 10
2010-10-21 07:25:34 51°14.062 2°55.463 335.4 11 336 10.1
2010-10-21 07:25:38 51°14.073 2°55.454 335.3 11.1 334 10.2
2010-10-21 07:25:43 51°14.087 2°55.444 334.3 11.1 335 10.1
2010-10-21 07:25:48 51°14.101 2°55.433 335.1 11.2 335 10.1
2010-10-21 07:25:54 51°14.118 2°55.421 335.4 11.3 334 -999
2010-10-21 07:25:58 51°14.129 2°55.412 334.7 11.2 334 10
2010-10-21 07:26:04 51°14.146 2°55.398 334.2 11.3 333 -999
2010-10-21 07:26:09 51°14.16 2°55.387 333 11.4 332 -999
2010-10-21 07:26:14 51°14.174 2°55.374 331.8 11.6 331 -999
2010-10-21 07:26:20 51°14.19 2°55.359 330.5 11.5 331 -999
2010-10-21 07:26:25 51°14.204 2°55.347 330.4 11.5 330 -999
2010-10-21 07:26:30 51°14.217 2°55.333 329.6 11.5 329 -999
2010-10-21 07:26:35 51°14.231 2°55.32 329.5 11.5 329 -999
2010-10-21 07:26:40 51°14.245 2°55.307 328.9 11.7 329 -999
2010-10-21 07:26:45 51°14.259 2°55.294 328.8 11.6 330 10.4
2010-10-21 07:26:50 51°14.273 2°55.28 329.4 11.7 329 -999
2010-10-21 07:26:55 51°14.287 2°55.267 328.9 11.7 329 -999
2010-10-21 07:27:00 51°14.301 2°55.253 329.1 12 329 10.5
2010-10-21 07:27:05 51°14.315 2°55.238 328.8 12.1 327 10.1
2010-10-21 07:27:10 51°14.329 2°55.223 327.1 12.1 327 -999
2010-10-21 07:27:14 51°14.34 2°55.212 326.7 12.3 328 10.2
2010-10-21 07:27:19 51°14.355 2°55.197 327 12.3 329 10.2
2010-10-21 07:27:24 51°14.37 2°55.184 328.2 12.3 330 10.4
2010-10-21 07:27:30 51°14.387 2°55.167 328.9 12.4 329 11.1
2010-10-21 07:27:34 51°14.399 2°55.156 329.2 12.3 329 10.2
2010-10-21 07:27:39 51°14.414 2°55.14 328.9 12.5 328 9.8
2010-10-21 07:27:44 51°14.428 2°55.126 327.4 12.5 328 10
2010-10-21 07:27:49 51°14.443 2°55.111 327.3 12.7 328 9.9
2010-10-21 07:27:54 51°14.458 2°55.095 327.7 12.6 327 10.7
2010-10-21 07:27:58 51°14.469 2°55.083 327.5 12.6 326 10.5
2010-10-21 07:28:03 51°14.484 2°55.068 326.6 12.6 328 10.6
2010-10-21 07:28:08 51°14.499 2°55.052 326.7 12.9 327 10.9
2010-10-21 07:28:14 51°14.517 2°55.035 326.8 12.7 329 11.3
2010-10-21 07:28:18 51°14.53 2°55.023 328.7 12.9 328 11
2010-10-21 07:28:23 51°14.544 2°55.006 328.3 12.9 325 11.4
2010-10-21 07:28:27 51°14.556 2°54.993 327.2 12.8 325 11.4
2010-10-21 07:28:33 51°14.574 2°54.973 326.9 12.9 325 11.7
2010-10-21 07:28:38 51°14.588 2°54.957 327.1 12.8 324 11.7
2010-10-21 07:28:42 51°14.599 2°54.943 326.4 12.8 324 11.2
2010-10-21 07:28:47 51°14.614 2°54.927 326.4 12.7 325 11.5
2010-10-21 07:28:52 51°14.628 2°54.91 327.7 12.7 324 12
2010-10-21 07:28:57 51°14.642 2°54.893 327.4 12.8 323 11.7
2010-10-21 07:29:02 51°14.656 2°54.876 326.6 12.8 322 11.5